createdAt,value
2019-04-20T00:00:41.704Z,17.08
2019-04-20T00:01:37.239Z,17.16
2019-04-20T00:02:37.705Z,17.12
2019-04-20T00:03:41.254Z,17.11
2019-04-20T00:04:37.364Z,17.08
2019-04-20T00:05:37.191Z,17.11
2019-04-20T00:06:43.391Z,17.08
2019-04-20T00:07:37.613Z,17.07
2019-04-20T00:08:38.219Z,17.08
2019-04-20T00:09:39.593Z,17.08
2019-04-20T00:10:46.482Z,17.06
2019-04-20T00:11:49.368Z,17.07
2019-04-20T00:12:52.071Z,16.97
2019-04-20T00:13:47.727Z,16.94
2019-04-20T00:14:37.195Z,16.93
2019-04-20T00:15:36.758Z,16.94
2019-04-20T00:16:35.750Z,16.94
2019-04-20T00:17:39.368Z,16.96
2019-04-20T00:18:42.952Z,16.94
2019-04-20T00:19:40.466Z,16.96
2019-04-20T00:20:37.179Z,17.01
2019-04-20T00:21:38.871Z,17.06
2019-04-20T00:22:42.091Z,16.97
2019-04-20T00:23:40.079Z,16.94
2019-04-20T00:24:37.525Z,17.11
2019-04-20T00:25:47.486Z,17.11
2019-04-20T00:27:04.651Z,16.98
2019-04-20T00:27:55.883Z,16.97
2019-04-20T00:28:51.079Z,16.88
2019-04-20T00:29:49.792Z,16.86
2019-04-20T00:30:53.366Z,16.68
2019-04-20T00:31:45.560Z,16.78
2019-04-20T00:32:51.332Z,16.71
2019-04-20T00:33:46.893Z,16.66
2019-04-20T00:34:39.024Z,16.66
2019-04-20T00:35:34.183Z,16.70
2019-04-20T00:36:34.913Z,16.67
2019-04-20T00:37:34.039Z,16.71
2019-04-20T00:38:41.840Z,16.71
2019-04-20T00:39:34.047Z,16.70
2019-04-20T00:40:35.614Z,16.70
2019-04-20T00:41:40.733Z,16.66
2019-04-20T00:42:40.758Z,16.70
2019-04-20T00:43:37.243Z,16.73
2019-04-20T00:44:37.609Z,16.71
2019-04-20T00:45:36.608Z,16.85
2019-04-20T00:46:46.759Z,16.76
2019-04-20T00:47:42.884Z,16.60
2019-04-20T00:48:46.132Z,16.64
2019-04-20T00:49:45.446Z,16.52
2019-04-20T00:50:52.554Z,16.57
2019-04-20T00:51:52.700Z,16.52
2019-04-20T00:52:50.879Z,16.53
2019-04-20T00:53:40.850Z,16.50
2019-04-20T00:54:32.877Z,16.39
2019-04-20T00:55:33.809Z,16.27
2019-04-20T00:56:32.976Z,16.31
2019-04-20T00:57:41.884Z,16.38
2019-04-20T00:58:42.374Z,16.28
2019-04-20T00:59:57.631Z,16.30
2019-04-20T01:00:54.253Z,16.31
2019-04-20T01:01:52.393Z,16.30
2019-04-20T01:02:45.444Z,16.34
2019-04-20T01:03:47.411Z,16.38
2019-04-20T01:04:53.936Z,16.34
2019-04-20T01:05:53.656Z,16.28
2019-04-20T01:06:46.744Z,16.28
2019-04-20T01:07:39.099Z,16.15
2019-04-20T01:08:31.929Z,16.21
2019-04-20T01:09:32.864Z,16.07
2019-04-20T01:10:38.295Z,16.00
2019-04-20T01:11:36.818Z,15.94
2019-04-20T01:12:34.938Z,16.02
2019-04-20T01:13:31.821Z,16.01
2019-04-20T01:14:41.534Z,15.94
2019-04-20T01:15:37.519Z,15.96
2019-04-20T01:16:38.880Z,16.01
2019-04-20T01:17:31.278Z,16.08
2019-04-20T01:18:31.224Z,16.01
2019-04-20T01:19:31.149Z,16.08
2019-04-20T01:20:31.070Z,16.02
2019-04-20T01:21:33.274Z,15.96
2019-04-20T01:22:42.721Z,15.97
2019-04-20T01:23:39.616Z,15.96
2019-04-20T01:24:35.493Z,16.00
2019-04-20T01:25:37.150Z,16.05
2019-04-20T01:26:31.336Z,15.94
2019-04-20T01:27:43.875Z,16.07
2019-04-20T01:28:46.384Z,16.04
2019-04-20T01:29:39.377Z,16.11
2019-04-20T01:30:37.840Z,16.01
2019-04-20T01:31:39.384Z,15.94
2019-04-20T01:32:49.212Z,16.04
2019-04-20T01:33:42.619Z,16.00
2019-04-20T01:34:42.747Z,15.96
2019-04-20T01:35:48.136Z,15.90
2019-04-20T01:36:45.834Z,15.89
2019-04-20T01:37:46.969Z,15.82
2019-04-20T01:38:43.521Z,15.71
2019-04-20T01:39:37.098Z,15.74
2019-04-20T01:40:29.678Z,15.80
2019-04-20T01:41:30.748Z,15.80
2019-04-20T01:42:30.039Z,15.82
2019-04-20T01:43:29.485Z,15.84
2019-04-20T01:44:35.924Z,15.84
2019-04-20T01:45:34.644Z,15.90
2019-04-20T01:46:30.469Z,15.90
2019-04-20T01:47:33.191Z,15.68
2019-04-20T01:48:33.996Z,15.68
2019-04-20T01:49:32.448Z,15.68
2019-04-20T01:50:33.270Z,15.65
2019-04-20T01:51:37.369Z,15.68
2019-04-20T01:52:43.956Z,15.69
2019-04-20T01:53:46.738Z,15.69
2019-04-20T01:54:48.209Z,15.67
2019-04-20T01:55:56.119Z,15.71
2019-04-20T01:56:40.360Z,15.89
2019-04-20T01:57:44.138Z,15.89
2019-04-20T01:58:47.205Z,15.96
2019-04-20T01:59:39.982Z,15.96
2019-04-20T02:00:34.852Z,15.86
2019-04-20T02:01:33.669Z,15.92
2019-04-20T02:02:29.425Z,15.74
2019-04-20T02:03:35.386Z,15.76
2019-04-20T02:04:33.927Z,15.78
2019-04-20T02:05:32.308Z,15.78
2019-04-20T02:06:30.067Z,15.71
2019-04-20T02:07:35.093Z,15.75
2019-04-20T02:08:29.488Z,15.72
2019-04-20T02:09:30.834Z,15.71
2019-04-20T02:10:38.317Z,15.71
2019-04-20T02:11:34.505Z,15.62
2019-04-20T02:12:31.107Z,15.57
2019-04-20T02:13:38.985Z,15.59
2019-04-20T02:14:35.545Z,15.51
2019-04-20T02:15:35.202Z,15.54
2019-04-20T02:16:35.418Z,15.50
2019-04-20T02:17:36.715Z,15.54
2019-04-20T02:18:40.048Z,15.47
2019-04-20T02:19:37.691Z,15.49
2019-04-20T02:20:44.232Z,15.44
2019-04-20T02:21:43.354Z,15.47
2019-04-20T02:22:44.584Z,15.51
2019-04-20T02:23:35.731Z,15.60
2019-04-20T02:24:27.835Z,15.59
2019-04-20T02:25:26.978Z,15.59
2019-04-20T02:26:26.489Z,15.59
2019-04-20T02:27:34.494Z,15.56
2019-04-20T02:28:56.925Z,15.64
2019-04-20T02:29:50.939Z,15.71
2019-04-20T02:32:10.117Z,15.74
2019-04-20T02:33:11.957Z,15.67
2019-04-20T02:33:58.534Z,15.56
2019-04-20T02:35:03.400Z,15.65
2019-04-20T02:36:01.014Z,15.65
2019-04-20T02:37:09.451Z,15.64
2019-04-20T02:40:57.393Z,15.60
2019-04-20T02:41:57.894Z,15.50
2019-04-20T02:43:16.855Z,15.50
2019-04-20T02:44:05.987Z,15.41
2019-04-20T02:45:08.910Z,15.49
2019-04-20T02:45:50.538Z,15.47
2019-04-20T02:47:04.692Z,15.53
2019-04-20T02:49:01.497Z,15.46
2019-04-20T02:55:02.252Z,15.29
2019-04-20T02:55:58.578Z,15.29
2019-04-20T02:57:14.455Z,15.21
2019-04-20T02:58:07.332Z,15.31
2019-04-20T02:59:05.508Z,15.28
2019-04-20T03:00:46.147Z,15.32
2019-04-20T03:01:45.523Z,15.35
2019-04-20T03:02:38.564Z,15.31
2019-04-20T03:03:32.855Z,15.17
2019-04-20T03:04:35.063Z,15.16
2019-04-20T03:05:35.909Z,15.19
2019-04-20T03:06:36.363Z,15.10
2019-04-20T03:07:47.979Z,15.11
2019-04-20T03:08:47.900Z,15.02
2019-04-20T03:09:46.952Z,15.14
2019-04-20T03:10:56.694Z,15.10
2019-04-20T03:11:54.038Z,15.19
2019-04-20T03:12:44.901Z,15.11
2019-04-20T03:13:41.371Z,15.13
2019-04-20T03:14:39.314Z,15.10
2019-04-20T03:15:41.854Z,15.14
2019-04-20T03:16:41.199Z,15.10
2019-04-20T03:17:45.385Z,15.20
2019-04-20T03:18:35.036Z,15.16
2019-04-20T03:19:40.073Z,15.13
2019-04-20T03:20:48.915Z,15.13
2019-04-20T03:21:47.905Z,15.10
2019-04-20T03:23:05.918Z,15.19
2019-04-20T03:23:50.027Z,15.20
2019-04-20T03:25:01.827Z,15.17
2019-04-20T03:25:43.093Z,15.21
2019-04-20T03:26:41.963Z,15.16
2019-04-20T03:27:35.569Z,15.20
2019-04-20T03:28:40.111Z,15.02
2019-04-20T03:29:40.970Z,15.02
2019-04-20T03:32:04.676Z,14.92
2019-04-20T03:35:51.388Z,14.84
2019-04-20T03:36:47.186Z,14.80
2019-04-20T03:37:43.451Z,14.84
2019-04-20T03:38:45.102Z,14.81
2019-04-20T03:39:35.968Z,14.84
2019-04-20T03:40:36.458Z,14.89
2019-04-20T03:41:30.207Z,14.86
2019-04-20T03:42:22.312Z,14.86
2019-04-20T03:43:22.233Z,14.94
2019-04-20T03:44:26.028Z,15.02
2019-04-20T03:45:23.157Z,14.95
2019-04-20T03:46:31.057Z,14.91
2019-04-20T03:47:30.399Z,14.89
2019-04-20T03:48:38.198Z,14.96
2019-04-20T03:49:50.392Z,14.98
2019-04-20T03:50:42.467Z,14.98
2019-04-20T03:51:40.228Z,14.99
2019-04-20T03:52:36.530Z,14.91
2019-04-20T03:53:39.262Z,14.84
2019-04-20T03:54:32.106Z,14.80
2019-04-20T03:55:40.807Z,14.58
2019-04-20T03:56:39.025Z,14.58
2019-04-20T03:57:40.914Z,14.50
2019-04-20T03:58:37.867Z,14.51
2019-04-20T03:59:47.544Z,14.36
2019-04-20T04:00:36.244Z,14.29
2019-04-20T04:02:02.124Z,14.20
2019-04-20T04:03:00.381Z,14.36
2019-04-20T04:03:50.745Z,14.35
2019-04-20T04:04:42.663Z,14.42
2019-04-20T04:05:38.182Z,14.52
2019-04-20T04:06:33.173Z,14.51
2019-04-20T04:07:29.545Z,14.55
2019-04-20T04:08:27.722Z,14.58
2019-04-20T04:09:29.116Z,14.62
2019-04-20T04:10:30.447Z,14.60
2019-04-20T04:11:34.817Z,14.65
2019-04-20T04:12:28.390Z,14.64
2019-04-20T04:13:18.986Z,14.64
2019-04-20T04:14:19.809Z,14.55
2019-04-20T04:15:19.018Z,14.45
2019-04-20T04:16:21.564Z,14.50
2019-04-20T04:17:21.318Z,14.57
2019-04-20T04:18:26.089Z,14.57
2019-04-20T04:19:25.183Z,14.62
2019-04-20T04:20:21.017Z,14.64
2019-04-20T04:21:35.129Z,14.62
2019-04-20T04:22:37.715Z,14.47
2019-04-20T04:23:38.232Z,14.62
2019-04-20T04:24:30.707Z,14.64
2019-04-20T04:25:29.799Z,14.70
2019-04-20T04:26:38.031Z,14.65
2019-04-20T04:27:37.084Z,14.52
2019-04-20T04:28:35.266Z,14.50
2019-04-20T04:29:38.426Z,14.64
2019-04-20T04:30:30.859Z,14.62
2019-04-20T04:31:39.012Z,14.70
2019-04-20T04:33:00.410Z,14.78
2019-04-20T04:34:40.575Z,14.65
2019-04-20T04:35:30.274Z,14.50
2019-04-20T04:36:36.053Z,14.46
2019-04-20T04:37:36.468Z,14.51
2019-04-20T04:38:37.742Z,14.60
2019-04-20T04:39:35.519Z,14.64
2019-04-20T04:40:40.560Z,14.64
2019-04-20T04:41:36.322Z,14.70
2019-04-20T04:42:42.105Z,14.78
2019-04-20T04:43:38.898Z,14.86
2019-04-20T04:44:30.313Z,14.81
2019-04-20T04:45:19.549Z,14.92
2019-04-20T04:46:16.648Z,14.91
2019-04-20T04:47:18.023Z,14.92
2019-04-20T04:48:23.913Z,14.89
2019-04-20T04:49:25.834Z,14.89
2019-04-20T04:50:22.833Z,14.86
2019-04-20T04:51:22.910Z,14.95
2019-04-20T04:52:27.130Z,14.77
2019-04-20T04:53:27.187Z,14.83
2019-04-20T04:54:26.885Z,14.73
2019-04-20T04:55:26.034Z,14.65
2019-04-20T04:56:19.722Z,14.75
2019-04-20T04:57:15.889Z,14.73
2019-04-20T04:58:17.202Z,14.73
2019-04-20T04:59:17.071Z,14.72
2019-04-20T05:00:20.067Z,14.73
2019-04-20T05:01:21.727Z,14.72
2019-04-20T05:02:15.946Z,14.75
2019-04-20T05:03:35.100Z,14.84
2019-04-20T05:04:33.987Z,14.88
2019-04-20T05:05:35.838Z,14.94
2019-04-20T05:06:31.674Z,14.98
2019-04-20T05:07:32.221Z,15.07
2019-04-20T05:08:25.313Z,15.19
2019-04-20T05:09:17.048Z,15.17
2019-04-20T05:10:15.988Z,15.11
2019-04-20T05:11:15.278Z,14.92
2019-04-20T05:12:18.645Z,14.80
2019-04-20T05:13:15.765Z,14.88
2019-04-20T05:14:21.574Z,14.84
2019-04-20T05:15:31.086Z,14.73
2019-04-20T05:16:37.443Z,14.58
2019-04-20T05:17:33.993Z,14.75
2019-04-20T05:18:42.095Z,14.77
2019-04-20T05:19:36.995Z,14.77
2019-04-20T05:20:35.390Z,14.75
2019-04-20T05:21:31.292Z,14.89
2019-04-20T05:22:38.967Z,14.78
2019-04-20T05:23:28.211Z,14.80
2019-04-20T05:24:31.951Z,14.92
2019-04-20T05:25:30.994Z,14.89
2019-04-20T05:26:38.554Z,14.99
2019-04-20T05:27:36.370Z,14.98
2019-04-20T05:28:27.914Z,14.94
2019-04-20T05:29:19.684Z,14.94
2019-04-20T05:30:14.014Z,14.95
2019-04-20T05:31:14.779Z,14.92
2019-04-20T05:32:18.013Z,14.83
2019-04-20T05:33:25.586Z,14.84
2019-04-20T05:34:31.024Z,14.75
2019-04-20T05:35:30.961Z,14.73
2019-04-20T05:36:38.514Z,14.81
2019-04-20T05:37:59.552Z,14.88
2019-04-20T05:38:37.181Z,14.88
2019-04-20T05:39:32.987Z,14.77
2019-04-20T05:40:35.336Z,14.80
2019-04-20T05:41:32.787Z,14.75
2019-04-20T05:42:35.928Z,14.81
2019-04-20T05:43:29.206Z,14.72
2019-04-20T05:44:27.652Z,14.75
2019-04-20T05:45:28.394Z,14.60
2019-04-20T05:46:31.063Z,14.60
2019-04-20T05:47:34.352Z,14.64
2019-04-20T05:48:31.728Z,14.72
2019-04-20T05:49:31.731Z,14.72
2019-04-20T05:50:30.281Z,14.77
2019-04-20T05:51:36.184Z,14.75
2019-04-20T05:53:32.581Z,14.69
2019-04-20T05:54:32.272Z,14.55
2019-04-20T05:55:33.052Z,14.75
2019-04-20T05:56:35.789Z,14.72
2019-04-20T05:57:53.809Z,14.72
2019-04-20T05:58:37.159Z,14.58
2019-04-20T05:59:27.032Z,14.70
2019-04-20T06:00:33.542Z,14.72
2019-04-20T06:01:34.409Z,14.65
2019-04-20T06:02:32.091Z,14.69
2019-04-20T06:03:25.855Z,14.77
2019-04-20T06:04:46.374Z,14.81
2019-04-20T06:05:38.889Z,14.94
2019-04-20T06:06:33.253Z,15.02
2019-04-20T06:07:34.748Z,15.06
2019-04-20T06:08:43.607Z,14.98
2019-04-20T06:09:33.635Z,14.95
2019-04-20T06:10:31.920Z,15.07
2019-04-20T06:11:38.450Z,14.92
2019-04-20T06:12:45.844Z,14.95
2019-04-20T06:13:25.250Z,14.86
2019-04-20T06:14:19.406Z,14.83
2019-04-20T06:15:26.479Z,14.86
2019-04-20T06:16:29.899Z,14.88
2019-04-20T06:17:35.297Z,14.95
2019-04-20T06:18:24.226Z,14.99
2019-04-20T06:19:35.687Z,14.95
2019-04-20T06:20:31.854Z,14.99
2019-04-20T06:21:37.662Z,15.17
2019-04-20T06:22:36.490Z,15.16
2019-04-20T06:23:42.750Z,15.13
2019-04-20T06:24:42.170Z,15.14
2019-04-20T06:25:54.251Z,15.14
2019-04-20T06:27:37.899Z,15.27
2019-04-20T06:28:26.787Z,15.25
2019-04-20T06:29:26.324Z,15.16
2019-04-20T06:30:26.919Z,15.20
2019-04-20T06:31:30.071Z,15.28
2019-04-20T06:32:33.580Z,15.21
2019-04-20T06:33:55.262Z,15.25
2019-04-20T06:34:33.419Z,15.36
2019-04-20T06:35:40.842Z,15.34
2019-04-20T06:36:32.507Z,15.47
2019-04-20T06:37:29.643Z,15.34
2019-04-20T06:38:52.294Z,15.47
2019-04-20T06:39:30.900Z,15.43
2019-04-20T06:40:48.163Z,15.56
2019-04-20T06:41:45.194Z,15.54
2019-04-20T06:42:23.519Z,15.59
2019-04-20T06:43:36.834Z,15.56
2019-04-20T06:44:32.252Z,15.62
2019-04-20T06:45:41.149Z,15.62
2019-04-20T06:46:33.414Z,15.80
2019-04-20T06:47:30.679Z,15.92
2019-04-20T06:48:35.029Z,15.82
2019-04-20T06:50:29.260Z,15.94
2019-04-20T06:51:31.048Z,15.93
2019-04-20T06:52:27.588Z,16.02
2019-04-20T06:53:40.853Z,15.86
2019-04-20T06:54:15.601Z,15.94
2019-04-20T06:55:34.441Z,15.89
2019-04-20T06:56:32.240Z,15.97
2019-04-20T06:57:32.728Z,16.04
2019-04-20T06:58:40.671Z,15.96
2019-04-20T06:59:31.741Z,16.00
2019-04-20T07:00:23.193Z,16.20
2019-04-20T07:01:36.928Z,16.17
2019-04-20T07:02:44.434Z,16.20
2019-04-20T07:03:49.386Z,16.17
2019-04-20T07:04:41.960Z,16.23
2019-04-20T07:05:28.558Z,16.20
2019-04-20T07:06:43.891Z,16.17
2019-04-20T07:07:45.435Z,16.20
2019-04-20T07:08:40.902Z,16.25
2019-04-20T07:09:41.092Z,16.21
2019-04-20T07:10:34.110Z,16.17
2019-04-20T07:11:30.760Z,16.24
2019-04-20T07:13:19.235Z,16.27
2019-04-20T07:14:12.060Z,16.35
2019-04-20T07:15:22.881Z,16.33
2019-04-20T07:16:31.196Z,16.25
2019-04-20T07:17:49.043Z,16.21
2019-04-20T07:18:31.424Z,15.96
2019-04-20T07:19:22.999Z,15.93
2019-04-20T07:20:29.053Z,16.00
2019-04-20T07:21:45.158Z,15.96
2019-04-20T07:22:33.498Z,15.92
2019-04-20T07:23:33.527Z,15.67
2019-04-20T07:24:36.139Z,15.59
2019-04-20T07:25:24.457Z,15.71
2019-04-20T07:26:35.647Z,15.90
2019-04-20T07:27:27.741Z,15.90
2019-04-20T07:28:35.351Z,15.93
2019-04-20T07:29:25.918Z,16.04
2019-04-20T07:30:26.553Z,16.02
2019-04-20T07:31:23.004Z,16.17
2019-04-20T07:32:17.769Z,16.20
2019-04-20T07:33:26.679Z,16.34
2019-04-20T07:34:28.013Z,16.38
2019-04-20T07:35:24.770Z,16.45
2019-04-20T07:36:32.380Z,16.53
2019-04-20T07:37:51.505Z,16.52
2019-04-20T07:39:29.112Z,16.63
2019-04-20T07:40:24.428Z,16.66
2019-04-20T07:41:32.966Z,16.70
2019-04-20T07:42:29.084Z,16.76
2019-04-20T07:43:25.455Z,16.79
2019-04-20T07:44:35.986Z,16.53
2019-04-20T07:46:42.456Z,16.45
2019-04-20T07:47:35.646Z,16.63
2019-04-20T07:48:37.885Z,16.68
2019-04-20T07:49:27.105Z,16.78
2019-04-20T07:50:18.568Z,16.96
2019-04-20T07:51:13.476Z,17.07
2019-04-20T07:52:04.037Z,17.12
2019-04-20T07:53:21.388Z,17.15
2019-04-20T07:54:28.529Z,17.21
2019-04-20T07:56:23.612Z,17.31
2019-04-20T07:57:21.522Z,17.12
2019-04-20T07:58:17.447Z,17.22
2019-04-20T07:59:14.353Z,17.18
2019-04-20T08:00:26.032Z,17.15
2019-04-20T08:01:30.188Z,17.26
2019-04-20T08:02:35.052Z,17.34
2019-04-20T08:03:29.616Z,17.46
2019-04-20T08:04:24.517Z,17.66
2019-04-20T08:05:17.211Z,17.63
2019-04-20T08:06:12.531Z,17.75
2019-04-20T08:07:07.239Z,17.78
2019-04-20T08:08:17.929Z,17.66
2019-04-20T08:09:14.532Z,17.70
2019-04-20T08:10:06.529Z,17.72
2019-04-20T08:11:21.226Z,17.78
2019-04-20T08:12:29.288Z,17.71
2019-04-20T08:13:35.328Z,17.77
2019-04-20T08:14:27.184Z,17.86
2019-04-20T08:15:38.731Z,17.93
2019-04-20T08:16:33.105Z,18.03
2019-04-20T08:17:46.459Z,17.96
2019-04-20T08:18:35.077Z,18.05
2019-04-20T08:19:23.011Z,18.08
2019-04-20T08:20:21.983Z,18.20
2019-04-20T08:21:25.674Z,18.25
2019-04-20T08:22:26.750Z,18.36
2019-04-20T08:23:23.327Z,18.30
2019-04-20T08:24:17.561Z,18.50
2019-04-20T08:25:14.128Z,18.52
2019-04-20T08:26:11.928Z,18.54
2019-04-20T08:27:06.550Z,18.47
2019-04-20T08:28:01.582Z,18.54
2019-04-20T08:29:09.236Z,18.66
2019-04-20T08:30:21.574Z,18.60
2019-04-20T08:31:17.843Z,18.60
2019-04-20T08:32:20.137Z,18.51
2019-04-20T08:33:23.232Z,18.52
2019-04-20T08:34:28.613Z,18.50
2019-04-20T08:35:25.959Z,18.55
2019-04-20T08:36:23.409Z,18.45
2019-04-20T08:37:17.562Z,18.39
2019-04-20T08:38:56.022Z,18.50
2019-04-20T08:39:37.717Z,18.55
2019-04-20T08:40:20.804Z,18.60
2019-04-20T08:41:16.920Z,18.60
2019-04-20T08:43:36.861Z,18.78
2019-04-20T08:44:42.706Z,18.91
2019-04-20T08:45:23.889Z,18.99
2019-04-20T08:46:23.448Z,19.02
2019-04-20T08:47:27.446Z,19.06
2019-04-20T08:48:23.392Z,19.08
2019-04-20T08:49:27.955Z,19.28
2019-04-20T08:51:22.700Z,19.26
2019-04-20T08:52:43.282Z,19.14
2019-04-20T08:54:18.015Z,19.31
2019-04-20T08:55:19.105Z,19.28
2019-04-20T08:56:14.294Z,19.33
2019-04-20T08:57:02.079Z,19.32
2019-04-20T08:57:59.929Z,19.41
2019-04-20T08:58:59.606Z,19.36
2019-04-20T09:00:02.551Z,19.43
2019-04-20T09:01:03.575Z,19.23
2019-04-20T09:02:05.130Z,19.31
2019-04-20T09:03:05.689Z,19.18
2019-04-20T09:04:07.742Z,19.10
2019-04-20T09:05:04.906Z,18.92
2019-04-20T09:06:06.404Z,18.95
2019-04-20T09:07:09.829Z,19.10
2019-04-20T09:08:08.136Z,19.25
2019-04-20T09:09:20.710Z,19.32
2019-04-20T09:10:25.733Z,19.46
2019-04-20T09:11:15.375Z,19.48
2019-04-20T09:12:15.689Z,19.61
2019-04-20T09:13:08.074Z,19.54
2019-04-20T09:14:01.813Z,19.43
2019-04-20T09:14:59.433Z,19.43
2019-04-20T09:15:58.147Z,19.47
2019-04-20T09:17:02.868Z,19.46
2019-04-20T09:18:02.045Z,19.36
2019-04-20T09:19:04.321Z,19.40
2019-04-20T09:20:09.648Z,19.58
2019-04-20T09:21:03.442Z,19.66
2019-04-20T09:22:12.126Z,19.61
2019-04-20T09:23:15.700Z,19.61
2019-04-20T09:24:19.730Z,19.78
2019-04-20T09:25:35.291Z,19.80
2019-04-20T09:26:16.196Z,19.84
2019-04-20T09:27:08.753Z,19.92
2019-04-20T09:28:07.257Z,19.95
2019-04-20T09:29:07.313Z,19.99
2019-04-20T09:30:13.723Z,20.02
2019-04-20T09:31:13.222Z,19.99
2019-04-20T09:32:16.963Z,19.98
2019-04-20T09:33:14.591Z,19.96
2019-04-20T09:34:11.713Z,19.88
2019-04-20T09:35:13.351Z,19.95
2019-04-20T09:36:09.743Z,19.96
2019-04-20T09:37:22.320Z,20.06
2019-04-20T09:38:11.588Z,20.18
2019-04-20T09:39:08.372Z,20.13
2019-04-20T09:40:16.946Z,20.32
2019-04-20T09:41:22.031Z,20.28
2019-04-20T09:42:01.528Z,20.35
2019-04-20T09:42:56.395Z,20.36
2019-04-20T09:43:56.350Z,20.52
2019-04-20T09:44:59.531Z,20.55
2019-04-20T09:46:01.459Z,20.54
2019-04-20T09:46:59.502Z,20.59
2019-04-20T09:47:57.113Z,20.62
2019-04-20T09:48:59.855Z,20.70
2019-04-20T09:50:12.853Z,20.67
2019-04-20T09:51:16.832Z,20.66
2019-04-20T09:52:11.165Z,20.66
2019-04-20T09:53:10.170Z,20.64
2019-04-20T09:54:12.521Z,20.69
2019-04-20T09:55:10.690Z,20.62
2019-04-20T09:56:14.547Z,20.51
2019-04-20T09:57:13.781Z,20.54
2019-04-20T09:58:11.301Z,20.55
2019-04-20T09:59:16.824Z,20.64
2019-04-20T10:00:14.655Z,20.64
2019-04-20T10:01:12.412Z,20.82
2019-04-20T10:02:05.421Z,20.94
2019-04-20T10:02:55.089Z,21.07
2019-04-20T10:03:55.027Z,21.10
2019-04-20T10:04:55.608Z,21.21
2019-04-20T10:05:55.918Z,21.22
2019-04-20T10:06:55.233Z,21.32
2019-04-20T10:07:59.886Z,21.37
2019-04-20T10:08:58.292Z,21.37
2019-04-20T10:09:55.832Z,21.35
2019-04-20T10:10:56.012Z,21.35
2019-04-20T10:11:55.367Z,21.47
2019-04-20T10:12:54.454Z,21.47
2019-04-20T10:13:54.494Z,21.43
2019-04-20T10:14:57.611Z,21.53
2019-04-20T10:15:55.433Z,21.49
2019-04-20T10:16:54.187Z,21.54
2019-04-20T10:17:54.123Z,21.71
2019-04-20T10:18:55.286Z,21.71
2019-04-20T10:19:54.002Z,21.64
2019-04-20T10:20:53.956Z,21.84
2019-04-20T10:21:54.871Z,21.90
2019-04-20T10:22:54.345Z,21.98
2019-04-20T10:23:54.594Z,21.80
2019-04-20T10:24:55.201Z,21.88
2019-04-20T10:25:54.328Z,21.83
2019-04-20T10:26:54.607Z,21.91
2019-04-20T10:27:53.579Z,21.91
2019-04-20T10:28:53.413Z,21.91
2019-04-20T10:29:53.631Z,21.90
2019-04-20T10:30:54.642Z,21.92
2019-04-20T10:31:57.152Z,21.99
2019-04-20T10:32:54.169Z,21.98
2019-04-20T10:33:53.494Z,21.91
2019-04-20T10:34:53.026Z,21.88
2019-04-20T10:35:53.929Z,21.83
2019-04-20T10:36:53.401Z,21.94
2019-04-20T10:37:53.586Z,21.91
2019-04-20T10:38:52.771Z,21.82
2019-04-20T10:39:52.719Z,21.83
2019-04-20T10:41:03.478Z,21.83
2019-04-20T10:41:56.231Z,21.67
2019-04-20T10:42:53.141Z,21.77
2019-04-20T10:43:53.135Z,21.68
2019-04-20T10:44:56.729Z,21.71
2019-04-20T10:45:53.006Z,21.68
2019-04-20T10:46:53.383Z,21.67
2019-04-20T10:47:52.781Z,21.54
2019-04-20T10:48:54.500Z,21.62
2019-04-20T10:49:53.064Z,21.53
2019-04-20T10:50:52.798Z,21.59
2019-04-20T10:51:51.924Z,21.53
2019-04-20T10:52:52.012Z,21.54
2019-04-20T10:53:51.782Z,21.56
2019-04-20T10:54:52.292Z,21.54
2019-04-20T10:55:51.658Z,21.53
2019-04-20T10:56:51.809Z,21.59
2019-04-20T10:57:51.530Z,21.58
2019-04-20T10:58:51.702Z,21.49
2019-04-20T10:59:51.940Z,21.44
2019-04-20T11:00:51.885Z,21.42
2019-04-20T11:01:51.823Z,21.47
2019-04-20T11:02:52.408Z,21.58
2019-04-20T11:03:52.260Z,21.59
2019-04-20T11:04:51.054Z,21.58
2019-04-20T11:05:51.004Z,21.71
2019-04-20T11:06:52.327Z,21.71
2019-04-20T11:07:50.874Z,21.80
2019-04-20T11:08:50.839Z,21.83
2019-04-20T11:10:02.272Z,21.96
2019-04-20T11:11:00.275Z,21.98
2019-04-20T11:11:50.589Z,22.03
2019-04-20T11:12:50.602Z,22.05
2019-04-20T11:13:51.134Z,21.99
2019-04-20T11:14:50.402Z,22.02
2019-04-20T11:15:50.596Z,21.92
2019-04-20T11:16:50.822Z,21.92
2019-04-20T11:17:51.322Z,21.96
2019-04-20T11:18:51.318Z,21.96
2019-04-20T11:19:50.372Z,21.92
2019-04-20T11:20:51.104Z,21.94
2019-04-20T11:21:50.249Z,21.94
2019-04-20T11:22:50.532Z,21.98
2019-04-20T11:23:50.015Z,21.83
2019-04-20T11:24:50.267Z,21.84
2019-04-20T11:25:50.485Z,21.86
2019-04-20T11:26:49.819Z,21.84
2019-04-20T11:27:50.083Z,21.80
2019-04-20T11:28:50.385Z,21.79
2019-04-20T11:29:49.843Z,21.68
2019-04-20T11:30:50.085Z,21.74
2019-04-20T11:31:53.067Z,21.80
2019-04-20T11:32:49.213Z,21.83
2019-04-20T11:33:50.009Z,21.69
2019-04-20T11:34:49.240Z,21.72
2019-04-20T11:35:49.922Z,21.69
2019-04-20T11:36:48.973Z,21.68
2019-04-20T11:37:49.178Z,21.58
2019-04-20T11:38:49.086Z,21.56
2019-04-20T11:39:48.741Z,21.49
2019-04-20T11:41:02.525Z,21.43
2019-04-20T11:41:49.775Z,21.43
2019-04-20T11:42:49.886Z,21.44
2019-04-20T11:43:49.470Z,21.54
2019-04-20T11:44:48.829Z,21.50
2019-04-20T11:45:48.880Z,21.54
2019-04-20T11:46:48.390Z,21.59
2019-04-20T11:47:49.468Z,21.68
2019-04-20T11:48:48.147Z,21.71
2019-04-20T11:49:49.343Z,21.72
2019-04-20T11:50:48.004Z,21.72
2019-04-20T11:51:47.938Z,21.64
2019-04-20T11:52:49.969Z,21.65
2019-04-20T11:53:48.199Z,21.67
2019-04-20T11:54:48.530Z,21.68
2019-04-20T11:55:48.770Z,21.72
2019-04-20T11:56:48.986Z,21.74
2019-04-20T11:57:47.533Z,21.71
2019-04-20T11:58:47.483Z,21.68
2019-04-20T11:59:48.425Z,21.71
2019-04-20T12:00:56.264Z,21.82
2019-04-20T12:01:52.149Z,21.74
2019-04-20T12:02:48.217Z,21.77
2019-04-20T12:03:58.197Z,21.75
2019-04-20T12:04:51.854Z,21.82
2019-04-20T12:05:53.230Z,21.71
2019-04-20T12:06:46.934Z,21.71
2019-04-20T12:07:46.994Z,21.75
2019-04-20T12:08:47.076Z,21.74
2019-04-20T12:09:47.299Z,21.58
2019-04-20T12:10:50.308Z,21.56
2019-04-20T12:11:59.858Z,21.44
2019-04-20T12:12:50.251Z,21.44
2019-04-20T12:13:46.866Z,21.44
2019-04-20T12:14:46.501Z,21.44
2019-04-20T12:15:47.556Z,21.49
2019-04-20T12:16:46.270Z,21.58
2019-04-20T12:17:47.346Z,21.59
2019-04-20T12:18:46.477Z,21.62
2019-04-20T12:19:46.079Z,21.74
2019-04-20T12:20:47.064Z,21.67
2019-04-20T12:21:45.937Z,21.72
2019-04-20T12:22:46.295Z,21.72
2019-04-20T12:23:46.513Z,21.74
2019-04-20T12:24:45.754Z,21.74
2019-04-20T12:25:46.309Z,21.77
2019-04-20T12:26:46.890Z,21.69
2019-04-20T12:27:50.769Z,21.67
2019-04-20T12:28:45.499Z,21.83
2019-04-20T12:29:45.758Z,21.79
2019-04-20T12:30:45.967Z,21.94
2019-04-20T12:31:51.160Z,21.99
2019-04-20T12:32:51.756Z,21.96
2019-04-20T12:33:46.401Z,21.96
2019-04-20T12:34:45.432Z,22.02
2019-04-20T12:35:45.006Z,22.00
2019-04-20T12:36:44.948Z,21.99
2019-04-20T12:37:45.151Z,21.99
2019-04-20T12:38:46.200Z,21.92
2019-04-20T12:39:44.950Z,22.05
2019-04-20T12:40:46.114Z,22.07
2019-04-20T12:41:50.478Z,22.03
2019-04-20T12:42:44.553Z,21.99
2019-04-20T12:43:45.716Z,21.98
2019-04-20T12:44:45.821Z,21.84
2019-04-20T12:45:44.349Z,21.94
2019-04-20T12:46:45.764Z,21.88
2019-04-20T12:47:46.994Z,21.92
2019-04-20T12:48:44.144Z,21.90
2019-04-20T12:49:45.410Z,21.83
2019-04-20T12:50:44.022Z,21.90
2019-04-20T12:51:50.568Z,21.88
2019-04-20T12:52:44.235Z,21.96
2019-04-20T12:53:44.518Z,21.96
2019-04-20T12:54:45.120Z,21.88
2019-04-20T12:55:44.375Z,21.90
2019-04-20T12:56:44.661Z,21.92
2019-04-20T12:57:44.744Z,21.96
2019-04-20T12:58:43.670Z,21.96
2019-04-20T12:59:45.552Z,21.92
2019-04-20T13:00:43.696Z,21.92
2019-04-20T13:01:43.724Z,21.94
2019-04-20T13:02:43.346Z,22.00
2019-04-20T13:03:43.489Z,22.03
2019-04-20T13:04:43.568Z,22.12
2019-04-20T13:05:43.613Z,22.10
2019-04-20T13:06:42.967Z,22.10
2019-04-20T13:07:46.376Z,22.14
2019-04-20T13:08:48.974Z,22.09
2019-04-20T13:09:42.754Z,22.05
2019-04-20T13:10:42.711Z,22.14
2019-04-20T13:11:51.629Z,22.12
2019-04-20T13:12:42.652Z,22.00
2019-04-20T13:13:42.503Z,22.02
2019-04-20T13:14:42.425Z,22.03
2019-04-20T13:15:42.519Z,22.09
2019-04-20T13:16:42.290Z,22.30
2019-04-20T13:17:42.279Z,22.25